Schreiber, Canada
Current Conditions -  °F | °C
As of 10:00 PM on Monday 20 Oct 2014 (Local Time) from CYGQ Reporting Station
Clear Clear  
Wind Chill: 32°   Ceiling: Unl
Heat Index: 32°   Visibility: 15mi
Dew Point: 30°   Wind: 2mph
Humidity: 93%   Direction: 10°N
Pressure: 30.13"   Gusts: NA
Location:  48.8°N, 87.27°W
Report Text: CYGQ 210200Z 01002KT 15SM SKC M00/M01 A3013 RMK SLP221
Loading
Personal Weather Stations






























Interactive Weather Map New forecast layout! Learn more

10-Day Weather Forecast

Advertisements
Track Severe Weather on mobile